sensor_id;sensor_type;location;lat;lon;timestamp;P1;durP1;ratioP1;P2;durP2;ratioP2
71083;SDS011;58741;52.672;13.548;2023-02-24T00:01:20;23.33;;;8.05;;
71083;SDS011;58741;52.672;13.548;2023-02-24T00:03:51;18.65;;;8.13;;
71083;SDS011;58741;52.672;13.548;2023-02-24T00:06:22;19.98;;;7.43;;
71083;SDS011;58741;52.672;13.548;2023-02-24T00:08:48;19.05;;;6.20;;
71083;SDS011;58741;52.672;13.548;2023-02-24T00:11:15;11.52;;;6.13;;
71083;SDS011;58741;52.672;13.548;2023-02-24T00:13:42;15.13;;;7.38;;
71083;SDS011;58741;52.672;13.548;2023-02-24T00:16:15;22.02;;;7.25;;
71083;SDS011;58741;52.672;13.548;2023-02-24T00:18:42;28.38;;;9.10;;
71083;SDS011;58741;52.672;13.548;2023-02-24T00:21:13;20.52;;;7.38;;
71083;SDS011;58741;52.672;13.548;2023-02-24T00:23:41;12.38;;;5.75;;
71083;SDS011;58741;52.672;13.548;2023-02-24T00:26:08;15.85;;;6.63;;
71083;SDS011;58741;52.672;13.548;2023-02-24T00:28:36;12.75;;;6.03;;
71083;SDS011;58741;52.672;13.548;2023-02-24T00:31:11;17.48;;;6.47;;
71083;SDS011;58741;52.672;13.548;2023-02-24T00:33:39;17.45;;;7.88;;
71083;SDS011;58741;52.672;13.548;2023-02-24T00:36:13;24.75;;;8.27;;
71083;SDS011;58741;52.672;13.548;2023-02-24T00:38:42;21.73;;;7.97;;
71083;SDS011;58741;52.672;13.548;2023-02-24T00:41:12;20.25;;;8.02;;
71083;SDS011;58741;52.672;13.548;2023-02-24T00:43:40;15.63;;;6.18;;
71083;SDS011;58741;52.672;13.548;2023-02-24T00:46:11;21.33;;;6.43;;
71083;SDS011;58741;52.672;13.548;2023-02-24T00:48:41;14.27;;;6.22;;
71083;SDS011;58741;52.672;13.548;2023-02-24T00:51:10;12.05;;;5.13;;
71083;SDS011;58741;52.672;13.548;2023-02-24T00:53:37;19.90;;;6.80;;
71083;SDS011;58741;52.672;13.548;2023-02-24T00:56:07;13.75;;;5.80;;
71083;SDS011;58741;52.672;13.548;2023-02-24T00:58:37;22.55;;;7.22;;
71083;SDS011;58741;52.672;13.548;2023-02-24T01:01:10;14.02;;;4.90;;
71083;SDS011;58741;52.672;13.548;2023-02-24T01:03:41;11.13;;;6.07;;
71083;SDS011;58741;52.672;13.548;2023-02-24T01:06:07;21.65;;;6.60;;
71083;SDS011;58741;52.672;13.548;2023-02-24T01:08:33;8.57;;;4.22;;
71083;SDS011;58741;52.672;13.548;2023-02-24T01:11:02;15.35;;;4.90;;
71083;SDS011;58741;52.672;13.548;2023-02-24T01:13:47;8.70;;;3.83;;
71083;SDS011;58741;52.672;13.548;2023-02-24T01:16:12;10.52;;;5.32;;
71083;SDS011;58741;52.672;13.548;2023-02-24T01:18:46;10.07;;;4.65;;
71083;SDS011;58741;52.672;13.548;2023-02-24T01:21:12;11.73;;;4.20;;
71083;SDS011;58741;52.672;13.548;2023-02-24T01:23:40;8.13;;;3.60;;
71083;SDS011;58741;52.672;13.548;2023-02-24T01:26:06;11.73;;;3.85;;
71083;SDS011;58741;52.672;13.548;2023-02-24T01:28:33;12.07;;;3.85;;
71083;SDS011;58741;52.672;13.548;2023-02-24T01:31:00;12.55;;;2.90;;
71083;SDS011;58741;52.672;13.548;2023-02-24T01:33:27;7.65;;;2.67;;
71083;SDS011;58741;52.672;13.548;2023-02-24T01:35:54;5.20;;;2.53;;
71083;SDS011;58741;52.672;13.548;2023-02-24T01:38:20;10.23;;;2.58;;
71083;SDS011;58741;52.672;13.548;2023-02-24T01:40:56;4.88;;;2.20;;
71083;SDS011;58741;52.672;13.548;2023-02-24T01:45:49;7.57;;;1.98;;
71083;SDS011;58741;52.672;13.548;2023-02-24T01:48:17;2.22;;;1.27;;
71083;SDS011;58741;52.672;13.548;2023-02-24T01:50:43;3.33;;;1.55;;
71083;SDS011;58741;52.672;13.548;2023-02-24T01:53:09;4.40;;;1.98;;
71083;SDS011;58741;52.672;13.548;2023-02-24T01:55:40;5.32;;;2.10;;
71083;SDS011;58741;52.672;13.548;2023-02-24T01:58:14;5.68;;;2.30;;
71083;SDS011;58741;52.672;13.548;2023-02-24T02:00:46;1.33;;;1.17;;
71083;SDS011;58741;52.672;13.548;2023-02-24T02:03:15;1.83;;;1.13;;
71083;SDS011;58741;52.672;13.548;2023-02-24T02:05:55;4.68;;;1.30;;
71083;SDS011;58741;52.672;13.548;2023-02-24T02:08:25;4.10;;;1.33;;
71083;SDS011;58741;52.672;13.548;2023-02-24T02:10:52;2.70;;;1.00;;
71083;SDS011;58741;52.672;13.548;2023-02-24T02:13:23;0.93;;;0.63;;
71083;SDS011;58741;52.672;13.548;2023-02-24T02:15:53;0.88;;;0.65;;
71083;SDS011;58741;52.672;13.548;2023-02-24T02:18:31;2.17;;;0.70;;
71083;SDS011;58741;52.672;13.548;2023-02-24T02:21:21;1.45;;;0.95;;
71083;SDS011;58741;52.672;13.548;2023-02-24T02:35:34;10.77;;;1.33;;
71083;SDS011;58741;52.672;13.548;2023-02-24T02:38:19;3.28;;;0.80;;
71083;SDS011;58741;52.672;13.548;2023-02-24T02:43:46;2.30;;;0.70;;
71083;SDS011;58741;52.672;13.548;2023-02-24T02:49:03;1.33;;;0.95;;
71083;SDS011;58741;52.672;13.548;2023-02-24T02:51:38;0.43;;;0.43;;
71083;SDS011;58741;52.672;13.548;2023-02-24T02:54:11;2.65;;;0.80;;
71083;SDS011;58741;52.672;13.548;2023-02-24T02:57:09;2.38;;;0.52;;
71083;SDS011;58741;52.672;13.548;2023-02-24T02:59:40;3.95;;;0.90;;
71083;SDS011;58741;52.672;13.548;2023-02-24T03:02:13;5.22;;;0.80;;
71083;SDS011;58741;52.672;13.548;2023-02-24T03:04:50;0.75;;;0.40;;
71083;SDS011;58741;52.672;13.548;2023-02-24T03:07:19;3.38;;;1.05;;
71083;SDS011;58741;52.672;13.548;2023-02-24T03:09:49;1.33;;;1.13;;
71083;SDS011;58741;52.672;13.548;2023-02-24T03:12:20;1.73;;;1.08;;
71083;SDS011;58741;52.672;13.548;2023-02-24T03:14:55;2.40;;;0.80;;
71083;SDS011;58741;52.672;13.548;2023-02-24T03:17:27;3.05;;;0.82;;
71083;SDS011;58741;52.672;13.548;2023-02-24T03:20:09;0.35;;;0.35;;
71083;SDS011;58741;52.672;13.548;2023-02-24T03:22:54;3.92;;;1.02;;
71083;SDS011;58741;52.672;13.548;2023-02-24T03:25:28;6.75;;;1.52;;
71083;SDS011;58741;52.672;13.548;2023-02-24T03:28:06;3.75;;;0.95;;
71083;SDS011;58741;52.672;13.548;2023-02-24T03:30:42;2.30;;;0.60;;
71083;SDS011;58741;52.672;13.548;2023-02-24T03:33:14;2.00;;;0.80;;
71083;SDS011;58741;52.672;13.548;2023-02-24T03:35:46;4.78;;;0.98;;
71083;SDS011;58741;52.672;13.548;2023-02-24T03:38:15;1.83;;;0.70;;
71083;SDS011;58741;52.672;13.548;2023-02-24T03:40:41;2.92;;;0.55;;
71083;SDS011;58741;52.672;13.548;2023-02-24T03:43:27;2.28;;;0.75;;
71083;SDS011;58741;52.672;13.548;2023-02-24T03:45:56;1.02;;;0.68;;
71083;SDS011;58741;52.672;13.548;2023-02-24T03:48:24;1.20;;;0.60;;
71083;SDS011;58741;52.672;13.548;2023-02-24T03:50:52;2.17;;;0.57;;
71083;SDS011;58741;52.672;13.548;2023-02-24T03:53:40;3.30;;;0.47;;
71083;SDS011;58741;52.672;13.548;2023-02-24T03:56:32;8.90;;;1.27;;
71083;SDS011;58741;52.672;13.548;2023-02-24T03:59:27;1.25;;;0.88;;
71083;SDS011;58741;52.672;13.548;2023-02-24T04:07:56;3.65;;;0.93;;
71083;SDS011;58741;52.672;13.548;2023-02-24T04:10:29;1.70;;;1.00;;
71083;SDS011;58741;52.672;13.548;2023-02-24T04:13:13;7.72;;;0.85;;
71083;SDS011;58741;52.672;13.548;2023-02-24T04:15:50;5.05;;;0.80;;
71083;SDS011;58741;52.672;13.548;2023-02-24T04:18:24;5.90;;;0.77;;
71083;SDS011;58741;52.672;13.548;2023-02-24T04:20:53;2.15;;;0.70;;
71083;SDS011;58741;52.672;13.548;2023-02-24T04:23:25;1.05;;;0.98;;
71083;SDS011;58741;52.672;13.548;2023-02-24T04:25:55;4.00;;;1.25;;
71083;SDS011;58741;52.672;13.548;2023-02-24T04:28:21;2.15;;;0.50;;
71083;SDS011;58741;52.672;13.548;2023-02-24T04:30:49;15.52;;;1.52;;
71083;SDS011;58741;52.672;13.548;2023-02-24T04:33:18;1.73;;;0.55;;
71083;SDS011;58741;52.672;13.548;2023-02-24T04:35:44;1.60;;;0.52;;
71083;SDS011;58741;52.672;13.548;2023-02-24T04:38:12;1.75;;;0.60;;
71083;SDS011;58741;52.672;13.548;2023-02-24T04:40:38;10.77;;;0.85;;
71083;SDS011;58741;52.672;13.548;2023-02-24T04:43:06;2.80;;;1.08;;
71083;SDS011;58741;52.672;13.548;2023-02-24T04:45:32;2.72;;;0.77;;
71083;SDS011;58741;52.672;13.548;2023-02-24T04:47:59;3.65;;;0.63;;
71083;SDS011;58741;52.672;13.548;2023-02-24T04:50:34;6.07;;;0.90;;
71083;SDS011;58741;52.672;13.548;2023-02-24T04:53:01;2.50;;;0.82;;
71083;SDS011;58741;52.672;13.548;2023-02-24T04:55:34;2.60;;;1.20;;
71083;SDS011;58741;52.672;13.548;2023-02-24T04:58:06;0.93;;;0.50;;
71083;SDS011;58741;52.672;13.548;2023-02-24T05:00:35;1.80;;;0.80;;
71083;SDS011;58741;52.672;13.548;2023-02-24T05:03:04;4.07;;;0.68;;
71083;SDS011;58741;52.672;13.548;2023-02-24T05:05:31;2.30;;;0.50;;
71083;SDS011;58741;52.672;13.548;2023-02-24T05:08:02;0.60;;;0.52;;
71083;SDS011;58741;52.672;13.548;2023-02-24T05:10:36;4.50;;;0.90;;
71083;SDS011;58741;52.672;13.548;2023-02-24T05:13:14;0.77;;;0.60;;
71083;SDS011;58741;52.672;13.548;2023-02-24T05:15:41;3.35;;;1.13;;
71083;SDS011;58741;52.672;13.548;2023-02-24T05:18:10;2.92;;;0.77;;
71083;SDS011;58741;52.672;13.548;2023-02-24T05:20:51;1.23;;;0.70;;
71083;SDS011;58741;52.672;13.548;2023-02-24T05:23:38;1.00;;;0.50;;
71083;SDS011;58741;52.672;13.548;2023-02-24T05:26:09;1.45;;;0.75;;
71083;SDS011;58741;52.672;13.548;2023-02-24T05:28:37;1.08;;;0.85;;
71083;SDS011;58741;52.672;13.548;2023-02-24T05:31:05;1.33;;;0.75;;
71083;SDS011;58741;52.672;13.548;2023-02-24T05:33:39;1.40;;;0.57;;
71083;SDS011;58741;52.672;13.548;2023-02-24T05:36:09;1.83;;;0.70;;
71083;SDS011;58741;52.672;13.548;2023-02-24T05:38:36;0.77;;;0.57;;
71083;SDS011;58741;52.672;13.548;2023-02-24T05:41:03;0.73;;;0.63;;
71083;SDS011;58741;52.672;13.548;2023-02-24T05:43:31;3.35;;;1.10;;
71083;SDS011;58741;52.672;13.548;2023-02-24T05:46:03;1.13;;;1.02;;
71083;SDS011;58741;52.672;13.548;2023-02-24T05:48:29;4.60;;;1.73;;
71083;SDS011;58741;52.672;13.548;2023-02-24T05:51:00;2.45;;;1.27;;
71083;SDS011;58741;52.672;13.548;2023-02-24T05:53:26;4.90;;;1.13;;
71083;SDS011;58741;52.672;13.548;2023-02-24T05:55:52;2.33;;;0.95;;
71083;SDS011;58741;52.672;13.548;2023-02-24T05:58:18;1.23;;;0.90;;
71083;SDS011;58741;52.672;13.548;2023-02-24T06:00:43;2.33;;;1.02;;
71083;SDS011;58741;52.672;13.548;2023-02-24T06:03:10;1.88;;;0.88;;
71083;SDS011;58741;52.672;13.548;2023-02-24T06:05:41;4.13;;;0.85;;
71083;SDS011;58741;52.672;13.548;2023-02-24T06:08:08;3.92;;;1.05;;
71083;SDS011;58741;52.672;13.548;2023-02-24T06:10:36;3.38;;;0.80;;
71083;SDS011;58741;52.672;13.548;2023-02-24T06:13:04;1.75;;;0.95;;
71083;SDS011;58741;52.672;13.548;2023-02-24T06:15:31;1.55;;;0.90;;
71083;SDS011;58741;52.672;13.548;2023-02-24T06:17:57;0.68;;;0.68;;
71083;SDS011;58741;52.672;13.548;2023-02-24T06:20:25;2.10;;;1.30;;
71083;SDS011;58741;52.672;13.548;2023-02-24T06:22:52;0.90;;;0.68;;
71083;SDS011;58741;52.672;13.548;2023-02-24T06:25:21;1.58;;;0.93;;
71083;SDS011;58741;52.672;13.548;2023-02-24T06:27:52;0.70;;;0.70;;
71083;SDS011;58741;52.672;13.548;2023-02-24T06:30:20;2.92;;;1.27;;
71083;SDS011;58741;52.672;13.548;2023-02-24T06:32:47;2.88;;;0.85;;
71083;SDS011;58741;52.672;13.548;2023-02-24T06:35:13;1.05;;;0.55;;
71083;SDS011;58741;52.672;13.548;2023-02-24T06:37:39;3.97;;;1.02;;
71083;SDS011;58741;52.672;13.548;2023-02-24T06:40:05;0.75;;;0.60;;
71083;SDS011;58741;52.672;13.548;2023-02-24T06:42:42;1.30;;;1.02;;
71083;SDS011;58741;52.672;13.548;2023-02-24T06:45:10;2.00;;;0.88;;
71083;SDS011;58741;52.672;13.548;2023-02-24T06:47:36;4.40;;;1.08;;
71083;SDS011;58741;52.672;13.548;2023-02-24T06:50:02;3.38;;;1.00;;
71083;SDS011;58741;52.672;13.548;2023-02-24T06:52:31;0.95;;;0.60;;
71083;SDS011;58741;52.672;13.548;2023-02-24T06:54:57;9.20;;;1.02;;
71083;SDS011;58741;52.672;13.548;2023-02-24T06:57:22;1.23;;;0.60;;
71083;SDS011;58741;52.672;13.548;2023-02-24T06:59:48;4.47;;;1.08;;
71083;SDS011;58741;52.672;13.548;2023-02-24T07:02:15;1.05;;;0.63;;
71083;SDS011;58741;52.672;13.548;2023-02-24T07:04:41;1.13;;;0.52;;
71083;SDS011;58741;52.672;13.548;2023-02-24T07:07:10;0.52;;;0.43;;
71083;SDS011;58741;52.672;13.548;2023-02-24T07:09:38;1.90;;;0.98;;
71083;SDS011;58741;52.672;13.548;2023-02-24T07:12:05;0.60;;;0.50;;
71083;SDS011;58741;52.672;13.548;2023-02-24T07:14:32;1.33;;;0.98;;
71083;SDS011;58741;52.672;13.548;2023-02-24T07:16:57;3.17;;;1.15;;
71083;SDS011;58741;52.672;13.548;2023-02-24T07:19:28;0.50;;;0.50;;
71083;SDS011;58741;52.672;13.548;2023-02-24T07:21:57;2.50;;;0.85;;
71083;SDS011;58741;52.672;13.548;2023-02-24T07:24:31;0.90;;;0.40;;
71083;SDS011;58741;52.672;13.548;2023-02-24T07:27:01;0.65;;;0.65;;
71083;SDS011;58741;52.672;13.548;2023-02-24T07:29:29;1.10;;;0.63;;
71083;SDS011;58741;52.672;13.548;2023-02-24T07:32:00;5.93;;;0.70;;
71083;SDS011;58741;52.672;13.548;2023-02-24T07:34:27;1.95;;;0.70;;
71083;SDS011;58741;52.672;13.548;2023-02-24T07:36:53;0.77;;;0.73;;
71083;SDS011;58741;52.672;13.548;2023-02-24T07:39:20;4.05;;;0.73;;
71083;SDS011;58741;52.672;13.548;2023-02-24T07:41:47;0.73;;;0.50;;
71083;SDS011;58741;52.672;13.548;2023-02-24T07:44:14;1.67;;;1.00;;
71083;SDS011;58741;52.672;13.548;2023-02-24T07:46:41;3.72;;;1.05;;
71083;SDS011;58741;52.672;13.548;2023-02-24T07:49:07;3.45;;;0.50;;
71083;SDS011;58741;52.672;13.548;2023-02-24T07:51:37;0.47;;;0.40;;
71083;SDS011;58741;52.672;13.548;2023-02-24T07:54:03;6.15;;;1.20;;
71083;SDS011;58741;52.672;13.548;2023-02-24T07:56:29;6.43;;;1.05;;
71083;SDS011;58741;52.672;13.548;2023-02-24T07:59:01;1.75;;;0.40;;
71083;SDS011;58741;52.672;13.548;2023-02-24T08:01:32;8.63;;;1.27;;
71083;SDS011;58741;52.672;13.548;2023-02-24T08:04:04;2.20;;;1.00;;
71083;SDS011;58741;52.672;13.548;2023-02-24T08:06:38;3.60;;;0.85;;
71083;SDS011;58741;52.672;13.548;2023-02-24T08:09:15;1.05;;;0.60;;
71083;SDS011;58741;52.672;13.548;2023-02-24T08:11:47;0.60;;;0.52;;
71083;SDS011;58741;52.672;13.548;2023-02-24T08:14:21;3.45;;;0.90;;
71083;SDS011;58741;52.672;13.548;2023-02-24T08:16:56;0.80;;;0.60;;
71083;SDS011;58741;52.672;13.548;2023-02-24T08:19:27;1.17;;;0.55;;
71083;SDS011;58741;52.672;13.548;2023-02-24T08:22:03;0.98;;;0.60;;
71083;SDS011;58741;52.672;13.548;2023-02-24T08:24:55;1.42;;;0.90;;
71083;SDS011;58741;52.672;13.548;2023-02-24T08:27:25;1.70;;;0.80;;
71083;SDS011;58741;52.672;13.548;2023-02-24T08:29:55;1.33;;;0.73;;
71083;SDS011;58741;52.672;13.548;2023-02-24T08:32:24;2.63;;;0.95;;
71083;SDS011;58741;52.672;13.548;2023-02-24T08:34:50;0.60;;;0.60;;
71083;SDS011;58741;52.672;13.548;2023-02-24T08:37:21;1.08;;;0.50;;
71083;SDS011;58741;52.672;13.548;2023-02-24T08:39:48;2.53;;;1.08;;
71083;SDS011;58741;52.672;13.548;2023-02-24T08:42:18;0.82;;;0.63;;
71083;SDS011;58741;52.672;13.548;2023-02-24T08:44:44;2.97;;;1.25;;
71083;SDS011;58741;52.672;13.548;2023-02-24T08:47:10;1.38;;;0.70;;
71083;SDS011;58741;52.672;13.548;2023-02-24T08:49:37;0.40;;;0.40;;
71083;SDS011;58741;52.672;13.548;2023-02-24T08:52:04;4.10;;;0.82;;
71083;SDS011;58741;52.672;13.548;2023-02-24T08:54:31;0.70;;;0.70;;
71083;SDS011;58741;52.672;13.548;2023-02-24T08:56:58;0.57;;;0.57;;
71083;SDS011;58741;52.672;13.548;2023-02-24T08:59:33;4.45;;;1.75;;
71083;SDS011;58741;52.672;13.548;2023-02-24T09:04:59;1.48;;;1.10;;
71083;SDS011;58741;52.672;13.548;2023-02-24T09:07:29;1.83;;;0.82;;
71083;SDS011;58741;52.672;13.548;2023-02-24T09:10:03;1.98;;;0.95;;
71083;SDS011;58741;52.672;13.548;2023-02-24T09:12:35;3.80;;;1.20;;
71083;SDS011;58741;52.672;13.548;2023-02-24T09:15:06;1.25;;;0.93;;
71083;SDS011;58741;52.672;13.548;2023-02-24T09:17:33;1.90;;;1.30;;
71083;SDS011;58741;52.672;13.548;2023-02-24T09:20:14;1.73;;;1.08;;
71083;SDS011;58741;52.672;13.548;2023-02-24T09:22:51;2.40;;;1.25;;
71083;SDS011;58741;52.672;13.548;2023-02-24T09:25:35;2.78;;;1.25;;
71083;SDS011;58741;52.672;13.548;2023-02-24T09:28:26;8.70;;;1.35;;
71083;SDS011;58741;52.672;13.548;2023-02-24T09:30:57;1.88;;;1.40;;
71083;SDS011;58741;52.672;13.548;2023-02-24T09:35:57;3.50;;;1.25;;
71083;SDS011;58741;52.672;13.548;2023-02-24T09:38:34;4.25;;;1.67;;
71083;SDS011;58741;52.672;13.548;2023-02-24T09:44:43;2.92;;;0.90;;
71083;SDS011;58741;52.672;13.548;2023-02-24T09:47:25;4.88;;;1.00;;
71083;SDS011;58741;52.672;13.548;2023-02-24T09:52:41;2.83;;;1.10;;
71083;SDS011;58741;52.672;13.548;2023-02-24T10:01:06;3.53;;;1.40;;
71083;SDS011;58741;52.672;13.548;2023-02-24T10:06:49;2.45;;;1.27;;
71083;SDS011;58741;52.672;13.548;2023-02-24T10:12:43;3.45;;;1.25;;
71083;SDS011;58741;52.672;13.548;2023-02-24T10:15:16;1.92;;;1.17;;
71083;SDS011;58741;52.672;13.548;2023-02-24T10:17:47;1.15;;;0.80;;
71083;SDS011;58741;52.672;13.548;2023-02-24T10:20:23;1.45;;;0.95;;
71083;SDS011;58741;52.672;13.548;2023-02-24T10:25:54;0.75;;;0.75;;
71083;SDS011;58741;52.672;13.548;2023-02-24T10:31:31;2.55;;;1.58;;
71083;SDS011;58741;52.672;13.548;2023-02-24T10:34:10;0.75;;;0.75;;
71083;SDS011;58741;52.672;13.548;2023-02-24T10:36:43;1.55;;;0.70;;
71083;SDS011;58741;52.672;13.548;2023-02-24T10:41:41;1.73;;;1.00;;
71083;SDS011;58741;52.672;13.548;2023-02-24T10:44:28;2.05;;;0.90;;
71083;SDS011;58741;52.672;13.548;2023-02-24T10:47:04;1.95;;;0.90;;
71083;SDS011;58741;52.672;13.548;2023-02-24T10:49:42;3.22;;;1.35;;
71083;SDS011;58741;52.672;13.548;2023-02-24T10:52:21;4.43;;;1.00;;
71083;SDS011;58741;52.672;13.548;2023-02-24T10:55:13;1.25;;;0.88;;
71083;SDS011;58741;52.672;13.548;2023-02-24T10:58:06;5.47;;;1.35;;
71083;SDS011;58741;52.672;13.548;2023-02-24T11:00:44;0.80;;;0.73;;
71083;SDS011;58741;52.672;13.548;2023-02-24T11:03:31;0.63;;;0.57;;
71083;SDS011;58741;52.672;13.548;2023-02-24T11:06:16;1.13;;;1.02;;
71083;SDS011;58741;52.672;13.548;2023-02-24T11:15:00;1.55;;;0.60;;
71083;SDS011;58741;52.672;13.548;2023-02-24T11:20:26;1.23;;;0.70;;
71083;SDS011;58741;52.672;13.548;2023-02-24T11:22:52;1.95;;;0.55;;
71083;SDS011;58741;52.672;13.548;2023-02-24T11:27:48;1.75;;;1.00;;
71083;SDS011;58741;52.672;13.548;2023-02-24T11:32:52;2.25;;;1.17;;
71083;SDS011;58741;52.672;13.548;2023-02-24T11:35:33;1.02;;;0.65;;
71083;SDS011;58741;52.672;13.548;2023-02-24T11:41:06;1.08;;;0.73;;
71083;SDS011;58741;52.672;13.548;2023-02-24T11:43:59;1.30;;;0.65;;
71083;SDS011;58741;52.672;13.548;2023-02-24T11:46:35;0.57;;;0.57;;
71083;SDS011;58741;52.672;13.548;2023-02-24T11:52:01;0.57;;;0.57;;
71083;SDS011;58741;52.672;13.548;2023-02-24T11:54:38;1.27;;;0.75;;
71083;SDS011;58741;52.672;13.548;2023-02-24T11:57:16;0.45;;;0.40;;
71083;SDS011;58741;52.672;13.548;2023-02-24T11:59:47;0.70;;;0.70;;
71083;SDS011;58741;52.672;13.548;2023-02-24T12:02:21;3.00;;;1.15;;
71083;SDS011;58741;52.672;13.548;2023-02-24T12:05:22;4.43;;;1.10;;
71083;SDS011;58741;52.672;13.548;2023-02-24T12:08:09;1.55;;;0.88;;
71083;SDS011;58741;52.672;13.548;2023-02-24T12:10:41;1.10;;;0.90;;
71083;SDS011;58741;52.672;13.548;2023-02-24T12:13:16;3.25;;;1.02;;
71083;SDS011;58741;52.672;13.548;2023-02-24T12:15:55;1.10;;;1.00;;
71083;SDS011;58741;52.672;13.548;2023-02-24T12:18:31;1.08;;;1.02;;
71083;SDS011;58741;52.672;13.548;2023-02-24T12:39:49;2.22;;;1.00;;
71083;SDS011;58741;52.672;13.548;2023-02-24T12:45:25;2.15;;;0.98;;
71083;SDS011;58741;52.672;13.548;2023-02-24T12:50:49;1.23;;;1.08;;
71083;SDS011;58741;52.672;13.548;2023-02-24T12:59:21;0.75;;;0.60;;
71083;SDS011;58741;52.672;13.548;2023-02-24T13:01:57;1.17;;;0.85;;
71083;SDS011;58741;52.672;13.548;2023-02-24T13:07:17;3.08;;;1.10;;
71083;SDS011;58741;52.672;13.548;2023-02-24T13:09:50;1.17;;;0.93;;
71083;SDS011;58741;52.672;13.548;2023-02-24T13:12:25;1.33;;;0.57;;
71083;SDS011;58741;52.672;13.548;2023-02-24T13:14:58;0.82;;;0.80;;
71083;SDS011;58741;52.672;13.548;2023-02-24T13:17:24;0.95;;;0.75;;
71083;SDS011;58741;52.672;13.548;2023-02-24T13:19:54;5.05;;;1.15;;
71083;SDS011;58741;52.672;13.548;2023-02-24T13:22:21;0.63;;;0.55;;
71083;SDS011;58741;52.672;13.548;2023-02-24T13:24:56;1.33;;;0.85;;
71083;SDS011;58741;52.672;13.548;2023-02-24T13:27:29;0.55;;;0.55;;
71083;SDS011;58741;52.672;13.548;2023-02-24T13:30:44;0.63;;;0.52;;
71083;SDS011;58741;52.672;13.548;2023-02-24T13:35:48;1.05;;;0.75;;
71083;SDS011;58741;52.672;13.548;2023-02-24T13:43:50;0.80;;;0.57;;
71083;SDS011;58741;52.672;13.548;2023-02-24T13:46:25;3.00;;;0.77;;
71083;SDS011;58741;52.672;13.548;2023-02-24T13:58:27;0.60;;;0.60;;
71083;SDS011;58741;52.672;13.548;2023-02-24T14:01:14;1.48;;;0.82;;
71083;SDS011;58741;52.672;13.548;2023-02-24T14:03:43;3.00;;;0.88;;
71083;SDS011;58741;52.672;13.548;2023-02-24T14:06:15;0.50;;;0.50;;
71083;SDS011;58741;52.672;13.548;2023-02-24T14:08:47;1.33;;;0.60;;
71083;SDS011;58741;52.672;13.548;2023-02-24T14:11:18;2.28;;;0.90;;
71083;SDS011;58741;52.672;13.548;2023-02-24T14:13:50;1.38;;;0.75;;
71083;SDS011;58741;52.672;13.548;2023-02-24T14:16:19;1.27;;;0.77;;
71083;SDS011;58741;52.672;13.548;2023-02-24T14:21:27;1.55;;;0.95;;
71083;SDS011;58741;52.672;13.548;2023-02-24T14:24:00;0.63;;;0.40;;
71083;SDS011;58741;52.672;13.548;2023-02-24T14:26:36;0.47;;;0.43;;
71083;SDS011;58741;52.672;13.548;2023-02-24T14:29:06;1.65;;;0.93;;
71083;SDS011;58741;52.672;13.548;2023-02-24T14:31:33;1.40;;;0.90;;
71083;SDS011;58741;52.672;13.548;2023-02-24T14:33:59;0.50;;;0.40;;
71083;SDS011;58741;52.672;13.548;2023-02-24T14:36:32;0.75;;;0.60;;
71083;SDS011;58741;52.672;13.548;2023-02-24T14:39:06;1.13;;;0.63;;
71083;SDS011;58741;52.672;13.548;2023-02-24T14:41:45;0.82;;;0.70;;
71083;SDS011;58741;52.672;13.548;2023-02-24T14:44:21;0.73;;;0.70;;
71083;SDS011;58741;52.672;13.548;2023-02-24T14:46:53;2.60;;;0.90;;
71083;SDS011;58741;52.672;13.548;2023-02-24T14:49:25;4.53;;;0.98;;
71083;SDS011;58741;52.672;13.548;2023-02-24T14:51:56;2.70;;;1.08;;
71083;SDS011;58741;52.672;13.548;2023-02-24T14:54:31;1.67;;;0.82;;
71083;SDS011;58741;52.672;13.548;2023-02-24T14:57:11;2.25;;;1.38;;
71083;SDS011;58741;52.672;13.548;2023-02-24T15:00:00;0.73;;;0.73;;
71083;SDS011;58741;52.672;13.548;2023-02-24T15:02:35;2.17;;;1.02;;
71083;SDS011;58741;52.672;13.548;2023-02-24T15:05:06;1.48;;;1.00;;
71083;SDS011;58741;52.672;13.548;2023-02-24T15:07:33;0.85;;;0.85;;
71083;SDS011;58741;52.672;13.548;2023-02-24T15:10:00;0.70;;;0.70;;
71083;SDS011;58741;52.672;13.548;2023-02-24T15:12:32;2.08;;;1.15;;
71083;SDS011;58741;52.672;13.548;2023-02-24T15:15:12;1.23;;;0.90;;
71083;SDS011;58741;52.672;13.548;2023-02-24T15:17:44;1.63;;;0.95;;
71083;SDS011;58741;52.672;13.548;2023-02-24T15:20:28;1.38;;;1.10;;
71083;SDS011;58741;52.672;13.548;2023-02-24T15:22:55;1.45;;;1.08;;
71083;SDS011;58741;52.672;13.548;2023-02-24T15:25:23;1.60;;;1.17;;
71083;SDS011;58741;52.672;13.548;2023-02-24T15:28:52;2.40;;;0.82;;
71083;SDS011;58741;52.672;13.548;2023-02-24T15:33:41;1.73;;;0.90;;
71083;SDS011;58741;52.672;13.548;2023-02-24T15:36:15;1.05;;;0.93;;
71083;SDS011;58741;52.672;13.548;2023-02-24T15:38:43;2.05;;;1.23;;
71083;SDS011;58741;52.672;13.548;2023-02-24T15:41:10;0.80;;;0.80;;
71083;SDS011;58741;52.672;13.548;2023-02-24T15:46:13;0.93;;;0.85;;
71083;SDS011;58741;52.672;13.548;2023-02-24T15:48:45;1.85;;;1.08;;
71083;SDS011;58741;52.672;13.548;2023-02-24T15:51:20;1.77;;;1.30;;
71083;SDS011;58741;52.672;13.548;2023-02-24T15:53:58;3.90;;;1.00;;
71083;SDS011;58741;52.672;13.548;2023-02-24T15:56:29;1.30;;;1.00;;
71083;SDS011;58741;52.672;13.548;2023-02-24T15:58:57;3.97;;;1.70;;
71083;SDS011;58741;52.672;13.548;2023-02-24T16:01:26;0.70;;;0.70;;
71083;SDS011;58741;52.672;13.548;2023-02-24T16:03:56;1.10;;;0.95;;
71083;SDS011;58741;52.672;13.548;2023-02-24T16:06:25;0.90;;;0.90;;
71083;SDS011;58741;52.672;13.548;2023-02-24T16:08:52;1.52;;;1.00;;
71083;SDS011;58741;52.672;13.548;2023-02-24T16:11:25;1.02;;;0.70;;
71083;SDS011;58741;52.672;13.548;2023-02-24T16:13:54;0.70;;;0.70;;
71083;SDS011;58741;52.672;13.548;2023-02-24T16:16:22;1.27;;;0.85;;
71083;SDS011;58741;52.672;13.548;2023-02-24T16:18:48;0.95;;;0.88;;
71083;SDS011;58741;52.672;13.548;2023-02-24T16:21:14;1.17;;;0.82;;
71083;SDS011;58741;52.672;13.548;2023-02-24T16:23:40;1.27;;;0.95;;
71083;SDS011;58741;52.672;13.548;2023-02-24T16:26:07;2.55;;;1.55;;
71083;SDS011;58741;52.672;13.548;2023-02-24T16:28:41;1.53;;;1.20;;
71083;SDS011;58741;52.672;13.548;2023-02-24T16:31:07;1.52;;;1.08;;
71083;SDS011;58741;52.672;13.548;2023-02-24T16:33:32;1.05;;;0.50;;
71083;SDS011;58741;52.672;13.548;2023-02-24T16:35:59;2.85;;;1.17;;
71083;SDS011;58741;52.672;13.548;2023-02-24T16:38:25;1.40;;;1.20;;
71083;SDS011;58741;52.672;13.548;2023-02-24T16:40:50;2.78;;;1.45;;
71083;SDS011;58741;52.672;13.548;2023-02-24T16:43:17;2.60;;;1.85;;
71083;SDS011;58741;52.672;13.548;2023-02-24T16:45:43;1.38;;;1.13;;
71083;SDS011;58741;52.672;13.548;2023-02-24T16:48:14;2.65;;;1.13;;
71083;SDS011;58741;52.672;13.548;2023-02-24T16:50:44;1.03;;;0.87;;
71083;SDS011;58741;52.672;13.548;2023-02-24T16:53:14;1.52;;;1.20;;
71083;SDS011;58741;52.672;13.548;2023-02-24T16:55:42;2.88;;;1.88;;
71083;SDS011;58741;52.672;13.548;2023-02-24T16:58:09;3.70;;;1.75;;
71083;SDS011;58741;52.672;13.548;2023-02-24T17:00:39;1.48;;;1.33;;
71083;SDS011;58741;52.672;13.548;2023-02-24T17:03:17;1.92;;;1.42;;
71083;SDS011;58741;52.672;13.548;2023-02-24T17:05:51;4.10;;;1.52;;
71083;SDS011;58741;52.672;13.548;2023-02-24T17:08:17;3.58;;;1.27;;
71083;SDS011;58741;52.672;13.548;2023-02-24T17:10:43;3.17;;;1.70;;
71083;SDS011;58741;52.672;13.548;2023-02-24T17:13:11;3.45;;;2.65;;
71083;SDS011;58741;52.672;13.548;2023-02-24T17:15:41;3.88;;;3.10;;
71083;SDS011;58741;52.672;13.548;2023-02-24T17:18:07;5.63;;;2.72;;